Time;durP1;ratioP1;P1;durP2;ratioP2;P2;SDS_P1;SDS_P2;PMS_P1;PMS_P2;Temp;Humidity;BMP_temperature;BMP_pressure;BME280_temperature;BME280_humidity;BME280_pressure;Samples;Min_cycle;Max_cycle;Signal;HPM_P1;HPM_P2
2023/03/15 06:51:29;;;;;;;9.73;7.40;;;;;;;;;;5176261;27;20264;-77
2023/03/15 06:55:20;;;;;;;8.43;4.47;;;;;;;;;;5075662;28;21065;-78
2023/03/15 06:57:46;;;;;;;9.03;5.50;;;;;;;;;;5074884;28;20415;-78
2023/03/15 07:00:13;;;;;;;12.40;5.03;;;0.90;99.90;;;;;;5074961;28;20415;-78
2023/03/15 07:02:39;;;;;;;6.87;4.93;;;1.00;99.90;;;;;;5074603;28;20419;-79
2023/03/15 07:05:05;;;;;;;11.43;4.77;;;1.00;99.90;;;;;;5073919;28;20396;-80
2023/03/15 07:07:31;;;;;;;8.50;4.67;;;;;;;;;;5074033;28;20403;-79
2023/03/15 07:09:57;;;;;;;11.13;4.93;;;;;;;;;;5075510;28;20434;-79
2023/03/15 07:12:23;;;;;;;6.70;4.80;;;0.70;99.90;;;;;;5076268;28;20396;-79
2023/03/15 07:14:49;;;;;;;7.23;4.80;;;;;;;;;;5074523;28;20208;-79
2023/03/15 07:17:15;;;;;;;6.83;4.20;;;0.50;99.90;;;;;;5080968;28;20177;-79
2023/03/15 07:19:40;;;;;;;11.07;5.10;;;0.70;99.90;;;;;;5074086;28;20203;-79
2023/03/15 07:22:06;;;;;;;8.47;3.70;;;;;;;;;;5072695;28;20742;-79
2023/03/15 07:24:32;;;;;;;12.13;5.23;;;;;;;;;;5074035;28;20188;-79
2023/03/15 07:26:58;;;;;;;10.73;4.60;;;;;;;;;;5074687;28;20417;-80
2023/03/15 07:29:24;;;;;;;11.20;4.87;;;0.80;99.90;;;;;;5074189;28;20438;-80
2023/03/15 07:31:51;;;;;;;9.50;4.83;;;0.90;99.90;;;;;;5073187;28;20184;-79
2023/03/15 07:34:17;;;;;;;7.73;4.13;;;;;;;;;;5072315;28;20276;-79
2023/03/15 07:36:43;;;;;;;10.67;4.97;;;;;;;;;;5073008;28;20881;-79
2023/03/15 07:39:09;;;;;;;10.00;4.83;;;1.40;99.90;;;;;;5073452;28;20404;-79
2023/03/15 07:41:35;;;;;;;9.20;4.03;;;1.40;99.90;;;;;;5071826;28;20434;-79
2023/03/15 07:44:00;;;;;;;7.77;3.67;;;2.50;99.90;;;;;;5072231;28;20177;-80
2023/03/15 07:46:26;;;;;;;9.50;4.33;;;3.10;99.90;;;;;;5073569;28;20658;-79
2023/03/15 07:48:52;;;;;;;8.40;4.23;;;3.70;99.90;;;;;;5072528;28;20180;-80
2023/03/15 07:51:17;;;;;;;10.10;4.47;;;3.80;99.90;;;;;;5073855;28;20185;-81
2023/03/15 07:53:43;;;;;;;17.43;6.60;;;4.00;99.90;;;;;;5073077;28;20311;-79
2023/03/15 07:56:09;;;;;;;9.87;4.70;;;4.60;99.90;;;;;;5074042;28;20181;-80
2023/03/15 07:58:34;;;;;;;11.07;5.20;;;4.70;99.90;;;;;;5071894;28;20173;-79
2023/03/15 08:01:01;;;;;;;16.63;8.13;;;4.40;99.90;;;;;;5073090;28;20223;-79
2023/03/15 08:03:26;;;;;;;9.10;3.77;;;4.60;99.90;;;;;;5071026;28;20223;-79
2023/03/15 08:05:53;;;;;;;14.07;3.30;;;4.80;99.90;;;;;;5064047;28;20178;-79
2023/03/15 08:08:19;;;;;;;10.00;4.70;;;4.50;99.90;;;;;;5059422;28;20177;-80
2023/03/15 08:10:44;;;;;;;7.27;3.73;;;4.60;99.90;;;;;;5057738;28;20206;-80
2023/03/15 08:13:11;;;;;;;6.73;2.80;;;5.10;99.90;;;;;;5059020;28;20198;-80
2023/03/15 08:15:37;;;;;;;6.43;2.67;;;5.30;99.90;;;;;;5059579;28;20175;-79
2023/03/15 08:18:03;;;;;;;7.43;3.47;;;5.10;99.90;;;;;;5058455;28;20534;-79
2023/03/15 08:20:29;;;;;;;8.80;4.37;;;5.20;99.90;;;;;;5056500;28;20253;-79
2023/03/15 08:22:55;;;;;;;14.77;7.47;;;5.90;99.90;;;;;;5058400;28;20628;-80
2023/03/15 08:25:22;;;;;;;9.70;3.53;;;5.60;99.90;;;;;;5058651;28;20181;-79
2023/03/15 08:27:49;;;;;;;11.50;3.30;;;5.70;99.90;;;;;;5058195;28;20215;-80
2023/03/15 08:30:16;;;;;;;5.53;2.50;;;5.90;99.90;;;;;;5056473;28;20267;-79
2023/03/15 08:32:44;;;;;;;7.37;2.73;;;5.00;99.90;;;;;;5056626;28;20187;-78
2023/03/15 08:35:11;;;;;;;5.23;2.50;;;5.60;99.90;;;;;;5058192;28;20248;-79
2023/03/15 08:37:38;;;;;;;7.70;2.23;;;5.20;99.90;;;;;;5059250;28;20538;-79
2023/03/15 08:40:08;;;;;;;6.40;2.07;;;5.30;99.90;;;;;;5058109;28;20207;-79
2023/03/15 08:42:35;;;;;;;17.27;7.43;;;5.40;99.90;;;;;;5059066;28;20206;-79
2023/03/15 08:45:02;;;;;;;11.90;3.90;;;5.70;99.90;;;;;;5059201;28;20628;-79
2023/03/15 08:47:28;;;;;;;5.70;2.50;;;5.90;99.90;;;;;;5058866;28;20203;-79
2023/03/15 08:49:53;;;;;;;6.93;2.40;;;6.20;99.90;;;;;;5061276;28;20674;-79
2023/03/15 08:52:20;;;;;;;6.20;2.93;;;6.20;99.90;;;;;;5062657;28;20207;-78
2023/03/15 08:54:46;;;;;;;7.37;3.50;;;5.70;99.90;;;;;;5058628;28;20555;-79
2023/03/15 08:57:12;;;;;;;4.13;2.20;;;6.10;99.90;;;;;;5058304;28;20183;-79
2023/03/15 08:59:38;;;;;;;6.43;2.50;;;6.00;99.90;;;;;;5057869;28;20272;-77
2023/03/15 09:02:04;;;;;;;3.87;1.70;;;5.80;99.90;;;;;;5055614;28;20227;-75
2023/03/15 09:04:30;;;;;;;6.77;3.20;;;5.50;99.90;;;;;;5055893;28;20185;-76
2023/03/15 09:06:56;;;;;;;7.33;2.47;;;5.30;99.90;;;;;;5055872;28;20173;-75
2023/03/15 09:09:22;;;;;;;5.13;1.90;;;5.80;99.90;;;;;;5055492;28;20285;-78
2023/03/15 09:11:48;;;;;;;7.37;2.50;;;5.80;99.90;;;;;;5056527;28;20631;-76
2023/03/15 09:14:14;;;;;;;3.67;1.90;;;5.40;99.90;;;;;;5054262;28;20213;-77
2023/03/15 09:16:39;;;;;;;5.17;1.80;;;5.30;99.90;;;;;;5056305;28;20201;-77
2023/03/15 09:19:05;;;;;;;4.83;2.30;;;5.50;99.90;;;;;;5056301;28;20166;-77
2023/03/15 09:21:31;;;;;;;5.27;1.97;;;5.80;99.90;;;;;;5056641;28;20173;-77
2023/03/15 09:23:56;;;;;;;3.10;1.70;;;5.70;99.90;;;;;;5054780;28;20593;-78
2023/03/15 09:26:22;;;;;;;4.87;2.97;;;6.00;99.90;;;;;;5056099;28;20178;-76
2023/03/15 09:28:48;;;;;;;5.20;3.23;;;6.10;99.90;;;;;;5055635;28;20527;-77
2023/03/15 09:31:14;;;;;;;3.73;2.50;;;6.80;99.90;;;;;;5055828;28;20199;-78
2023/03/15 09:33:39;;;;;;;4.97;2.60;;;7.10;99.90;;;;;;5055533;28;20284;-77
2023/03/15 09:36:06;;;;;;;3.73;2.17;;;6.90;99.90;;;;;;5055811;28;20166;-77
2023/03/15 09:38:31;;;;;;;5.17;2.30;;;7.00;99.90;;;;;;5055712;28;20658;-76
2023/03/15 09:41:02;;;;;;;3.33;1.60;;;7.00;99.90;;;;;;5058794;28;20189;-77
2023/03/15 09:43:48;;;;;;;4.07;2.57;;;7.10;99.90;;;;;;5065504;28;20184;-78
2023/03/15 09:46:43;;;;;;;3.53;1.53;;;7.10;99.90;;;;;;5068022;28;20162;-77
2023/03/15 09:49:20;;;;;;;6.43;2.97;;;7.20;99.90;;;;;;5055479;28;20200;-80
2023/03/15 09:52:00;;;;;;;6.57;2.70;;;7.20;99.90;;;;;;5058244;28;20681;-78
2023/03/15 09:54:33;;;;;;;3.97;2.17;;;7.10;99.90;;;;;;5056100;28;20560;-77
2023/03/15 09:57:01;;;;;;;4.10;1.70;;;7.10;99.90;;;;;;5054042;28;20166;-76
2023/03/15 09:59:49;;;;;;;6.40;1.30;;;6.90;99.90;;;;;;5053396;28;20194;-79
2023/03/15 10:02:28;;;;;;;3.47;1.37;;;6.90;99.90;;;;;;5054755;28;20696;-76
2023/03/15 10:05:12;;;;;;;2.37;1.20;;;6.90;99.90;;;;;;5054822;28;20559;-77
2023/03/15 10:07:38;;;;;;;3.10;1.50;;;7.10;99.40;;;;;;5054621;28;20639;-79
2023/03/15 10:10:14;;;;;;;2.57;1.10;;;7.20;99.90;;;;;;5054196;28;20255;-77
2023/03/15 10:12:55;;;;;;;3.43;1.13;;;7.20;95.90;;;;;;5056801;28;20169;-77
2023/03/15 10:15:33;;;;;;;1.03;0.90;;;7.30;96.60;;;;;;5055882;28;20166;-76
2023/03/15 10:18:05;;;;;;;2.00;1.10;;;7.40;94.90;;;;;;5054905;28;20177;-77
2023/03/15 10:20:47;;;;;;;2.63;1.30;;;7.30;95.10;;;;;;5053479;28;20272;-77
2023/03/15 10:23:27;;;;;;;2.83;1.30;;;7.40;99.60;;;;;;5058289;28;20201;-78
2023/03/15 10:25:53;;;;;;;3.40;1.17;;;7.50;95.60;;;;;;5056218;28;20518;-75
2023/03/15 10:28:30;;;;;;;3.40;1.67;;;7.30;97.50;;;;;;5056313;28;20196;-82
2023/03/15 10:31:06;;;;;;;1.43;0.97;;;7.70;96.40;;;;;;5053862;28;20189;-76
2023/03/15 10:33:34;;;;;;;2.60;1.20;;;8.00;96.60;;;;;;5053811;28;20212;-77
2023/03/15 10:36:10;;;;;;;2.60;0.90;;;8.10;94.80;;;;;;5054863;28;20509;-77
2023/03/15 10:38:36;;;;;;;2.23;1.00;;;7.90;94.10;;;;;;5054629;28;20163;-77
2023/03/15 10:41:05;;;;;;;4.23;1.50;;;8.00;95.70;;;;;;5054105;28;20194;-77
2023/03/15 10:43:35;;;;;;;3.67;1.37;;;7.50;95.30;;;;;;5052762;28;20273;-77
2023/03/15 10:46:04;;;;;;;1.20;0.93;;;7.50;94.30;;;;;;5053595;28;20565;-76
2023/03/15 10:48:34;;;;;;;3.10;1.40;;;7.60;93.90;;;;;;5054336;28;20174;-77
2023/03/15 10:51:06;;;;;;;2.80;0.90;;;8.00;95.90;;;;;;5052917;28;20211;-76
2023/03/15 10:53:32;;;;;;;2.83;1.40;;;7.90;92.60;;;;;;5052357;28;20267;-77
2023/03/15 10:56:02;;;;;;;3.33;1.10;;;7.60;93.40;;;;;;5052989;28;20205;-76
2023/03/15 10:58:39;;;;;;;3.37;1.03;;;7.20;92.20;;;;;;5055011;28;20173;-77
2023/03/15 11:01:09;;;;;;;1.57;0.90;;;6.80;93.00;;;;;;5055166;28;20593;-77
2023/03/15 11:03:36;;;;;;;1.10;0.87;;;7.60;94.80;;;;;;5054642;28;20161;-78
2023/03/15 11:06:17;;;;;;;1.90;0.70;;;8.00;92.40;;;;;;5054828;28;20544;-77
2023/03/15 11:08:43;;;;;;;1.60;0.80;;;8.50;91.60;;;;;;5054572;28;20154;-78
2023/03/15 11:11:09;;;;;;;2.33;1.00;;;8.60;87.60;;;;;;5055129;28;20252;-77
2023/03/15 11:13:40;;;;;;;0.83;0.77;;;8.70;88.90;;;;;;5053723;28;20204;-77
2023/03/15 11:16:14;;;;;;;0.97;0.80;;;7.70;86.80;;;;;;5054383;28;20181;-78
2023/03/15 11:18:57;;;;;;;0.90;0.80;;;7.60;90.60;;;;;;5053540;28;20567;-77
2023/03/15 11:21:29;;;;;;;2.77;0.93;;;7.50;84.70;;;;;;5053696;28;20628;-76
2023/03/15 11:23:57;;;;;;;3.93;0.90;;;7.10;88.90;;;;;;5054320;28;20170;-76
2023/03/15 11:26:24;;;;;;;1.30;0.90;;;7.80;86.20;;;;;;5053520;28;20169;-76
2023/03/15 11:28:57;;;;;;;1.53;1.00;;;7.50;83.20;;;;;;5054614;28;20180;-76
2023/03/15 11:31:26;;;;;;;1.53;0.80;;;7.20;87.30;;;;;;5053753;28;20162;-76
2023/03/15 11:34:15;;;;;;;1.23;0.70;;;6.80;85.90;;;;;;5053716;28;20197;-76
2023/03/15 11:36:44;;;;;;;1.80;0.70;;;6.20;88.10;;;;;;5052801;28;20176;-78
2023/03/15 11:39:27;;;;;;;1.27;0.90;;;7.40;86.60;;;;;;5054040;28;20170;-76
2023/03/15 11:41:58;;;;;;;5.30;1.60;;;8.20;83.70;;;;;;5057153;28;20538;-76
2023/03/15 11:44:36;;;;;;;1.90;1.20;;;8.10;84.70;;;;;;5057682;28;20208;-76
2023/03/15 11:47:24;;;;;;;1.90;1.40;;;8.30;85.70;;;;;;5057479;28;20173;-76
2023/03/15 11:49:55;;;;;;;1.17;1.07;;;7.10;89.40;;;;;;5057661;28;20225;-77
2023/03/15 11:52:26;;;;;;;1.73;1.07;;;7.40;90.50;;;;;;5057644;28;20180;-76
2023/03/15 11:55:00;;;;;;;2.63;1.30;;;8.50;89.20;;;;;;5056843;28;20217;-77
2023/03/15 11:57:47;;;;;;;2.03;1.10;;;8.40;83.90;;;;;;5064311;28;20174;-76
2023/03/15 12:00:20;;;;;;;1.80;1.10;;;7.70;84.20;;;;;;5057634;28;20275;-76
2023/03/15 12:02:57;;;;;;;2.00;1.10;;;7.10;83.70;;;;;;5055019;28;20256;-77
2023/03/15 12:05:41;;;;;;;3.03;1.57;;;6.50;84.10;;;;;;5057165;28;20534;-76
2023/03/15 12:08:35;;;;;;;1.20;0.90;;;6.70;83.10;;;;;;5057759;28;20223;-76
2023/03/15 12:11:01;;;;;;;1.50;0.87;;;7.20;85.00;;;;;;5058190;28;20276;-78
2023/03/15 12:13:29;;;;;;;2.20;0.90;;;7.30;80.60;;;;;;5055552;28;20671;-76
2023/03/15 12:15:55;;;;;;;1.13;0.87;;;7.00;82.90;;;;;;5055397;28;20192;-76
2023/03/15 12:18:30;;;;;;;1.33;0.87;;;6.40;84.30;;;;;;5055617;28;20178;-76
2023/03/15 12:21:20;;;;;;;3.03;1.20;;;7.40;87.10;;;;;;5057374;28;20575;-77
2023/03/15 12:23:56;;;;;;;1.90;0.80;;;7.00;81.80;;;;;;5056226;28;20616;-76
2023/03/15 12:26:31;;;;;;;2.17;1.17;;;6.60;83.50;;;;;;5056270;28;20150;-75
2023/03/15 12:28:59;;;;;;;1.17;0.90;;;7.80;88.40;;;;;;5055405;28;20611;-76
2023/03/15 12:31:41;;;;;;;1.47;0.90;;;9.50;81.60;;;;;;5054908;28;20173;-76
2023/03/15 12:34:20;;;;;;;2.00;0.90;;;10.50;76.00;;;;;;5056515;28;20578;-76
2023/03/15 12:36:50;;;;;;;2.13;1.30;;;10.90;73.40;;;;;;5055177;28;20256;-77
2023/03/15 12:39:16;;;;;;;2.27;0.93;;;10.80;72.70;;;;;;5056629;28;20197;-77
2023/03/15 12:41:43;;;;;;;0.90;0.80;;;10.20;72.40;;;;;;5057780;28;20170;-76
2023/03/15 12:44:38;;;;;;;1.80;1.10;;;9.20;70.50;;;;;;5056432;28;20170;-77
2023/03/15 12:47:06;;;;;;;2.30;1.63;;;7.60;76.60;;;;;;5056440;28;20157;-76
2023/03/15 12:49:33;;;;;;;1.40;1.20;;;8.70;78.00;;;;;;5055962;28;20619;-76
2023/03/15 12:52:04;;;;;;;2.07;1.33;;;8.90;74.20;;;;;;5056157;28;20170;-77
2023/03/15 12:54:44;;;;;;;1.90;0.87;;;8.00;73.70;;;;;;5056048;28;20291;-76
2023/03/15 12:57:17;;;;;;;1.43;0.77;;;7.50;75.20;;;;;;5056265;28;20154;-76
2023/03/15 12:59:53;;;;;;;1.10;0.70;;;6.80;71.40;;;;;;5056095;28;20189;-76
2023/03/15 13:02:47;;;;;;;1.00;0.80;;;6.70;74.30;;;;;;5056063;28;20161;-76
2023/03/15 13:05:24;;;;;;;1.70;0.90;;;6.50;74.00;;;;;;5056134;28;20154;-76
2023/03/15 13:07:55;;;;;;;1.97;0.77;;;6.60;77.60;;;;;;5054505;28;20188;-76
2023/03/15 13:10:46;;;;;;;1.93;0.80;;;6.90;76.00;;;;;;5055787;28;20259;-76
2023/03/15 13:13:28;;;;;;;2.17;1.20;;;6.90;74.90;;;;;;5055197;28;20204;-76
2023/03/15 13:16:22;;;;;;;1.87;1.10;;;6.80;74.60;;;;;;5054519;28;20246;-76
2023/03/15 13:19:13;;;;;;;1.47;0.90;;;7.10;74.80;;;;;;5055728;28;20255;-77
2023/03/15 13:22:06;;;;;;;1.83;1.10;;;8.80;68.80;;;;;;5055384;28;20154;-77
2023/03/15 13:25:03;;;;;;;3.17;1.20;;;9.00;71.80;;;;;;5056167;28;20212;-77
2023/03/15 13:27:54;;;;;;;2.23;1.00;;;11.10;66.90;;;;;;5056591;28;20635;-77
2023/03/15 13:30:38;;;;;;;1.20;0.80;;;9.90;66.50;;;;;;5057809;28;20193;-76
2023/03/15 13:33:24;;;;;;;3.53;0.97;;;8.30;67.90;;;;;;5060665;28;20253;-76
2023/03/15 13:36:09;;;;;;;1.83;1.10;;;7.30;70.00;;;;;;5054061;28;20177;-76
2023/03/15 13:38:45;;;;;;;3.37;1.40;;;6.30;72.60;;;;;;5055416;28;20169;-76
2023/03/15 13:41:30;;;;;;;1.00;0.90;;;6.00;73.50;;;;;;5055071;28;20197;-75
2023/03/15 13:44:00;;;;;;;0.83;0.80;;;6.40;75.80;;;;;;5054872;28;20172;-75
2023/03/15 13:46:29;;;;;;;1.07;0.93;;;7.90;76.40;;;;;;5057933;28;20241;-76
2023/03/15 13:48:55;;;;;;;1.40;1.20;;;8.10;73.50;;;;;;5058735;28;20188;-76
2023/03/15 13:51:27;;;;;;;1.60;1.30;;;7.60;72.20;;;;;;5058525;28;20173;-77
2023/03/15 13:54:22;;;;;;;1.20;1.10;;;7.30;74.30;;;;;;5058539;28;20215;-77
2023/03/15 13:57:02;;;;;;;3.73;2.20;;;7.00;75.50;;;;;;5060075;28;20168;-77
2023/03/15 13:59:41;;;;;;;3.60;2.53;;;6.80;75.50;;;;;;5057094;28;20223;-77
2023/03/15 14:02:18;;;;;;;6.43;1.73;;;6.50;75.40;;;;;;5054760;28;20177;-77
2023/03/15 14:04:50;;;;;;;2.50;1.07;;;6.40;76.90;;;;;;5053000;28;20579;-77
2023/03/15 14:07:27;;;;;;;1.83;1.60;;;6.50;74.70;;;;;;5055461;28;20176;-77
2023/03/15 14:10:22;;;;;;;1.70;1.13;;;6.50;72.00;;;;;;5053852;28;20206;-74
2023/03/15 14:12:49;;;;;;;2.27;1.00;;;6.40;71.50;;;;;;5054599;28;20170;-77
2023/03/15 14:15:19;;;;;;;1.67;1.23;;;6.20;73.70;;;;;;5053168;28;20208;-77
2023/03/15 14:18:02;;;;;;;1.90;1.27;;;6.20;75.70;;;;;;5056317;28;20667;-77
2023/03/15 14:20:32;;;;;;;2.53;1.23;;;6.20;75.90;;;;;;5068441;28;20218;-78
2023/03/15 14:23:00;;;;;;;1.60;1.40;;;6.30;76.80;;;;;;5054003;28;20502;-77
2023/03/15 14:25:26;;;;;;;4.53;3.00;;;6.20;73.40;;;;;;5052618;28;20253;-77
2023/03/15 14:27:53;;;;;;;6.53;2.60;;;6.10;73.30;;;;;;5054078;28;20631;-76
2023/03/15 14:30:24;;;;;;;2.90;2.60;;;6.10;72.80;;;;;;5054077;28;20254;-76
2023/03/15 14:32:56;;;;;;;3.50;2.80;;;6.00;73.90;;;;;;5053938;28;20264;-76
2023/03/15 14:35:28;;;;;;;1.87;1.50;;;6.00;74.30;;;;;;5053176;28;20606;-78
2023/03/15 14:38:21;;;;;;;2.90;2.60;;;5.80;72.10;;;;;;5054484;28;20174;-76
2023/03/15 14:40:48;;;;;;;2.30;1.20;;;5.80;74.30;;;;;;5054226;28;20661;-76
2023/03/15 14:43:14;;;;;;;6.27;2.70;;;5.80;74.60;;;;;;5052563;28;20264;-77
2023/03/15 14:45:42;;;;;;;3.00;2.53;;;5.80;73.70;;;;;;5052534;28;20634;-77
2023/03/15 14:48:12;;;;;;;2.43;1.60;;;5.80;73.50;;;;;;5054389;28;20167;-76
2023/03/15 14:50:41;;;;;;;3.00;2.20;;;5.90;74.00;;;;;;5053720;28;20733;-77
2023/03/15 14:53:11;;;;;;;2.17;1.87;;;6.00;74.70;;;;;;5052281;28;20183;-77
2023/03/15 14:55:37;;;;;;;3.37;1.90;;;6.00;74.50;;;;;;5053928;28;20174;-77
2023/03/15 14:58:14;;;;;;;2.63;1.60;;;6.00;73.50;;;;;;5052540;28;20235;-76
2023/03/15 15:00:41;;;;;;;1.80;1.40;;;5.90;74.20;;;;;;5053728;28;20208;-77
2023/03/15 15:03:21;;;;;;;4.03;1.67;;;5.70;73.50;;;;;;5053329;28;20179;-77
2023/03/15 15:05:46;;;;;;;7.13;1.80;;;5.70;74.00;;;;;;5060771;28;20174;-77
2023/03/15 15:08:15;;;;;;;2.73;1.80;;;5.60;74.00;;;;;;5053896;28;20523;-76
2023/03/15 15:10:43;;;;;;;3.17;1.90;;;5.50;73.90;;;;;;5053486;28;20195;-76
2023/03/15 15:13:17;;;;;;;4.20;1.87;;;5.40;75.50;;;;;;5052129;28;20177;-76
2023/03/15 15:15:43;;;;;;;3.27;1.77;;;5.40;76.10;;;;;;5055410;28;20161;-76
2023/03/15 15:18:08;;;;;;;7.67;4.80;;;5.20;76.50;;;;;;5057775;28;20183;-77
2023/03/15 15:20:34;;;;;;;5.67;3.87;;;5.30;75.90;;;;;;5057739;28;20273;-77
2023/03/15 15:23:00;;;;;;;13.20;5.03;;;5.30;75.00;;;;;;5057197;28;20182;-76
2023/03/15 15:25:29;;;;;;;5.20;3.67;;;5.40;76.20;;;;;;5057560;28;20720;-77
2023/03/15 15:27:54;;;;;;;2.50;2.30;;;5.60;76.20;;;;;;5057419;28;20198;-77
2023/03/15 15:30:23;;;;;;;1.20;1.10;;;5.60;75.50;;;;;;5057461;28;20739;-77
2023/03/15 15:32:50;;;;;;;1.33;1.17;;;5.50;76.20;;;;;;5057653;28;20174;-76
2023/03/15 15:56:33;;;;;;;3.10;2.90;;;5.00;81.10;;;;;;5112469;27;20265;-77
